sensor_id;sensor_type;location;lat;lon;timestamp;P1;durP1;ratioP1;P2;durP2;ratioP2
36415;SDS011;22447;44.530;18.620;2022-10-19T00:00:02;127.65;;;73.70;;
36415;SDS011;22447;44.530;18.620;2022-10-19T00:02:30;125.15;;;74.28;;
36415;SDS011;22447;44.530;18.620;2022-10-19T00:04:56;130.10;;;73.82;;
36415;SDS011;22447;44.530;18.620;2022-10-19T00:07:22;122.15;;;68.22;;
36415;SDS011;22447;44.530;18.620;2022-10-19T00:09:47;127.03;;;71.93;;
36415;SDS011;22447;44.530;18.620;2022-10-19T00:12:13;123.28;;;73.88;;
36415;SDS011;22447;44.530;18.620;2022-10-19T00:14:39;127.30;;;73.70;;
36415;SDS011;22447;44.530;18.620;2022-10-19T00:17:05;126.88;;;74.28;;
36415;SDS011;22447;44.530;18.620;2022-10-19T00:19:31;126.25;;;75.63;;
36415;SDS011;22447;44.530;18.620;2022-10-19T00:21:57;140.15;;;82.28;;
36415;SDS011;22447;44.530;18.620;2022-10-19T00:24:23;134.60;;;78.65;;
36415;SDS011;22447;44.530;18.620;2022-10-19T00:26:49;131.75;;;75.38;;
36415;SDS011;22447;44.530;18.620;2022-10-19T00:29:14;117.88;;;68.13;;
36415;SDS011;22447;44.530;18.620;2022-10-19T00:31:40;115.80;;;64.75;;
36415;SDS011;22447;44.530;18.620;2022-10-19T00:34:06;117.10;;;67.63;;
36415;SDS011;22447;44.530;18.620;2022-10-19T00:36:34;111.60;;;67.78;;
36415;SDS011;22447;44.530;18.620;2022-10-19T00:39:02;114.85;;;67.30;;
36415;SDS011;22447;44.530;18.620;2022-10-19T00:41:30;109.13;;;65.80;;
36415;SDS011;22447;44.530;18.620;2022-10-19T00:44:01;119.00;;;69.60;;
36415;SDS011;22447;44.530;18.620;2022-10-19T00:46:31;126.25;;;72.38;;
36415;SDS011;22447;44.530;18.620;2022-10-19T00:49:21;125.95;;;73.15;;
36415;SDS011;22447;44.530;18.620;2022-10-19T00:51:51;127.15;;;72.65;;
36415;SDS011;22447;44.530;18.620;2022-10-19T00:54:19;125.45;;;69.93;;
36415;SDS011;22447;44.530;18.620;2022-10-19T00:56:47;119.88;;;70.57;;
36415;SDS011;22447;44.530;18.620;2022-10-19T00:59:15;129.15;;;72.88;;
36415;SDS011;22447;44.530;18.620;2022-10-19T01:01:44;125.68;;;69.80;;
36415;SDS011;22447;44.530;18.620;2022-10-19T01:04:11;114.47;;;67.78;;
36415;SDS011;22447;44.530;18.620;2022-10-19T01:06:38;120.07;;;70.30;;
36415;SDS011;22447;44.530;18.620;2022-10-19T01:09:05;121.75;;;68.50;;
36415;SDS011;22447;44.530;18.620;2022-10-19T01:16:49;102.68;;;60.38;;
36415;SDS011;22447;44.530;18.620;2022-10-19T01:30:26;119.45;;;63.85;;
36415;SDS011;22447;44.530;18.620;2022-10-19T01:35:46;117.80;;;61.22;;
36415;SDS011;22447;44.530;18.620;2022-10-19T01:41:16;158.15;;;70.47;;
36415;SDS011;22447;44.530;18.620;2022-10-19T01:44:12;138.88;;;67.55;;
36415;SDS011;22447;44.530;18.620;2022-10-19T01:46:51;165.43;;;72.30;;
36415;SDS011;22447;44.530;18.620;2022-10-19T01:52:11;157.60;;;72.28;;
36415;SDS011;22447;44.530;18.620;2022-10-19T01:54:43;145.32;;;69.95;;
36415;SDS011;22447;44.530;18.620;2022-10-19T01:57:13;148.80;;;71.80;;
36415;SDS011;22447;44.530;18.620;2022-10-19T01:59:44;134.65;;;70.97;;
36415;SDS011;22447;44.530;18.620;2022-10-19T02:02:11;138.38;;;68.85;;
36415;SDS011;22447;44.530;18.620;2022-10-19T02:04:39;135.85;;;69.95;;
36415;SDS011;22447;44.530;18.620;2022-10-19T02:07:06;139.27;;;72.20;;
36415;SDS011;22447;44.530;18.620;2022-10-19T02:09:34;140.77;;;70.78;;
36415;SDS011;22447;44.530;18.620;2022-10-19T02:12:01;122.40;;;66.43;;
36415;SDS011;22447;44.530;18.620;2022-10-19T02:14:31;140.35;;;68.68;;
36415;SDS011;22447;44.530;18.620;2022-10-19T02:17:02;148.00;;;71.18;;
36415;SDS011;22447;44.530;18.620;2022-10-19T02:19:32;146.80;;;71.63;;
36415;SDS011;22447;44.530;18.620;2022-10-19T02:21:58;132.98;;;68.53;;
36415;SDS011;22447;44.530;18.620;2022-10-19T02:24:24;124.93;;;62.95;;
36415;SDS011;22447;44.530;18.620;2022-10-19T02:26:50;134.65;;;65.60;;
36415;SDS011;22447;44.530;18.620;2022-10-19T02:29:17;122.00;;;59.63;;
36415;SDS011;22447;44.530;18.620;2022-10-19T02:31:43;153.50;;;62.50;;
36415;SDS011;22447;44.530;18.620;2022-10-19T02:34:09;117.43;;;60.55;;
36415;SDS011;22447;44.530;18.620;2022-10-19T02:36:36;120.90;;;60.90;;
36415;SDS011;22447;44.530;18.620;2022-10-19T02:39:02;120.07;;;61.40;;
36415;SDS011;22447;44.530;18.620;2022-10-19T02:44:18;127.93;;;64.45;;
36415;SDS011;22447;44.530;18.620;2022-10-19T02:46:46;117.60;;;62.33;;
36415;SDS011;22447;44.530;18.620;2022-10-19T02:49:26;111.53;;;57.95;;
36415;SDS011;22447;44.530;18.620;2022-10-19T02:51:58;108.55;;;56.90;;
36415;SDS011;22447;44.530;18.620;2022-10-19T02:54:28;94.95;;;54.78;;
36415;SDS011;22447;44.530;18.620;2022-10-19T02:56:55;101.30;;;54.20;;
36415;SDS011;22447;44.530;18.620;2022-10-19T02:59:21;96.05;;;53.55;;
36415;SDS011;22447;44.530;18.620;2022-10-19T03:01:47;88.65;;;51.25;;
36415;SDS011;22447;44.530;18.620;2022-10-19T03:04:13;88.57;;;52.92;;
36415;SDS011;22447;44.530;18.620;2022-10-19T03:06:39;94.55;;;53.38;;
36415;SDS011;22447;44.530;18.620;2022-10-19T03:09:05;92.70;;;52.10;;
36415;SDS011;22447;44.530;18.620;2022-10-19T03:11:31;91.03;;;50.55;;
36415;SDS011;22447;44.530;18.620;2022-10-19T03:13:57;91.63;;;50.45;;
36415;SDS011;22447;44.530;18.620;2022-10-19T03:16:23;87.53;;;51.50;;
36415;SDS011;22447;44.530;18.620;2022-10-19T03:18:49;89.60;;;51.25;;
36415;SDS011;22447;44.530;18.620;2022-10-19T03:21:15;96.47;;;52.47;;
36415;SDS011;22447;44.530;18.620;2022-10-19T03:23:41;86.43;;;50.03;;
36415;SDS011;22447;44.530;18.620;2022-10-19T03:26:08;89.00;;;50.88;;
36415;SDS011;22447;44.530;18.620;2022-10-19T03:28:37;87.50;;;50.50;;
36415;SDS011;22447;44.530;18.620;2022-10-19T03:31:03;101.60;;;53.78;;
36415;SDS011;22447;44.530;18.620;2022-10-19T03:33:29;101.25;;;53.28;;
36415;SDS011;22447;44.530;18.620;2022-10-19T03:38:44;109.82;;;54.30;;
36415;SDS011;22447;44.530;18.620;2022-10-19T03:41:11;89.95;;;52.00;;
36415;SDS011;22447;44.530;18.620;2022-10-19T03:43:37;91.68;;;52.28;;
36415;SDS011;22447;44.530;18.620;2022-10-19T03:46:03;95.45;;;52.33;;
36415;SDS011;22447;44.530;18.620;2022-10-19T03:48:29;96.07;;;52.95;;
36415;SDS011;22447;44.530;18.620;2022-10-19T03:50:59;94.95;;;53.05;;
36415;SDS011;22447;44.530;18.620;2022-10-19T03:53:29;106.38;;;54.92;;
36415;SDS011;22447;44.530;18.620;2022-10-19T03:56:10;101.68;;;56.95;;
36415;SDS011;22447;44.530;18.620;2022-10-19T04:01:10;111.63;;;53.83;;
36415;SDS011;22447;44.530;18.620;2022-10-19T04:03:38;111.95;;;57.05;;
36415;SDS011;22447;44.530;18.620;2022-10-19T04:06:06;124.93;;;62.38;;
36415;SDS011;22447;44.530;18.620;2022-10-19T04:08:34;264.65;;;68.32;;
36415;SDS011;22447;44.530;18.620;2022-10-19T04:11:01;135.80;;;68.25;;
36415;SDS011;22447;44.530;18.620;2022-10-19T04:13:29;144.88;;;68.10;;
36415;SDS011;22447;44.530;18.620;2022-10-19T04:15:55;146.10;;;63.47;;
36415;SDS011;22447;44.530;18.620;2022-10-19T04:18:21;138.48;;;65.78;;
36415;SDS011;22447;44.530;18.620;2022-10-19T04:20:47;118.05;;;59.10;;
36415;SDS011;22447;44.530;18.620;2022-10-19T04:23:13;132.90;;;59.10;;
36415;SDS011;22447;44.530;18.620;2022-10-19T04:25:39;128.68;;;59.22;;
36415;SDS011;22447;44.530;18.620;2022-10-19T04:28:05;137.32;;;58.80;;
36415;SDS011;22447;44.530;18.620;2022-10-19T04:30:30;119.30;;;58.72;;
36415;SDS011;22447;44.530;18.620;2022-10-19T04:32:56;121.88;;;58.50;;
36415;SDS011;22447;44.530;18.620;2022-10-19T04:35:22;122.85;;;58.78;;
36415;SDS011;22447;44.530;18.620;2022-10-19T04:37:48;130.18;;;58.20;;
36415;SDS011;22447;44.530;18.620;2022-10-19T04:40:14;128.38;;;60.20;;
36415;SDS011;22447;44.530;18.620;2022-10-19T04:42:40;122.03;;;59.35;;
36415;SDS011;22447;44.530;18.620;2022-10-19T04:45:06;127.10;;;56.08;;
36415;SDS011;22447;44.530;18.620;2022-10-19T04:47:32;112.95;;;58.13;;
36415;SDS011;22447;44.530;18.620;2022-10-19T04:49:58;198.05;;;58.17;;
36415;SDS011;22447;44.530;18.620;2022-10-19T04:52:24;185.30;;;61.67;;
36415;SDS011;22447;44.530;18.620;2022-10-19T04:54:50;128.05;;;58.83;;
36415;SDS011;22447;44.530;18.620;2022-10-19T04:57:15;126.60;;;59.70;;
36415;SDS011;22447;44.530;18.620;2022-10-19T04:59:41;109.07;;;58.95;;
36415;SDS011;22447;44.530;18.620;2022-10-19T05:02:07;113.28;;;59.17;;
36415;SDS011;22447;44.530;18.620;2022-10-19T05:04:33;109.10;;;59.15;;
36415;SDS011;22447;44.530;18.620;2022-10-19T05:06:59;116.93;;;62.50;;
36415;SDS011;22447;44.530;18.620;2022-10-19T05:09:25;195.63;;;63.33;;
36415;SDS011;22447;44.530;18.620;2022-10-19T05:11:51;178.52;;;72.75;;
36415;SDS011;22447;44.530;18.620;2022-10-19T05:14:16;124.40;;;61.45;;
36415;SDS011;22447;44.530;18.620;2022-10-19T05:16:42;135.48;;;61.50;;
36415;SDS011;22447;44.530;18.620;2022-10-19T05:19:11;146.10;;;63.55;;
36415;SDS011;22447;44.530;18.620;2022-10-19T05:21:38;124.43;;;66.63;;
36415;SDS011;22447;44.530;18.620;2022-10-19T05:24:04;123.60;;;62.38;;
36415;SDS011;22447;44.530;18.620;2022-10-19T05:26:30;127.88;;;63.58;;
36415;SDS011;22447;44.530;18.620;2022-10-19T05:28:57;126.03;;;64.22;;
36415;SDS011;22447;44.530;18.620;2022-10-19T05:31:27;137.75;;;68.47;;
36415;SDS011;22447;44.530;18.620;2022-10-19T05:33:54;182.63;;;77.13;;
36415;SDS011;22447;44.530;18.620;2022-10-19T05:36:22;158.05;;;73.93;;
36415;SDS011;22447;44.530;18.620;2022-10-19T05:38:53;201.43;;;80.88;;
36415;SDS011;22447;44.530;18.620;2022-10-19T05:41:20;173.77;;;80.25;;
36415;SDS011;22447;44.530;18.620;2022-10-19T05:43:51;171.27;;;77.35;;
36415;SDS011;22447;44.530;18.620;2022-10-19T05:46:19;161.45;;;75.75;;
36415;SDS011;22447;44.530;18.620;2022-10-19T05:48:45;147.88;;;70.68;;
36415;SDS011;22447;44.530;18.620;2022-10-19T05:51:12;152.88;;;71.10;;
36415;SDS011;22447;44.530;18.620;2022-10-19T05:53:41;154.30;;;74.00;;
36415;SDS011;22447;44.530;18.620;2022-10-19T05:56:08;148.63;;;70.32;;
36415;SDS011;22447;44.530;18.620;2022-10-19T05:58:37;139.27;;;68.60;;
36415;SDS011;22447;44.530;18.620;2022-10-19T06:01:03;137.68;;;69.72;;
36415;SDS011;22447;44.530;18.620;2022-10-19T06:03:29;140.20;;;69.45;;
36415;SDS011;22447;44.530;18.620;2022-10-19T06:05:55;146.27;;;69.53;;
36415;SDS011;22447;44.530;18.620;2022-10-19T06:08:24;142.60;;;68.75;;
36415;SDS011;22447;44.530;18.620;2022-10-19T06:10:50;142.50;;;67.55;;
36415;SDS011;22447;44.530;18.620;2022-10-19T06:13:17;146.35;;;71.40;;
36415;SDS011;22447;44.530;18.620;2022-10-19T06:15:51;137.18;;;67.45;;
36415;SDS011;22447;44.530;18.620;2022-10-19T06:18:19;143.43;;;70.45;;
36415;SDS011;22447;44.530;18.620;2022-10-19T06:20:50;153.38;;;72.60;;
36415;SDS011;22447;44.530;18.620;2022-10-19T06:23:16;127.88;;;63.95;;
36415;SDS011;22447;44.530;18.620;2022-10-19T06:25:42;129.57;;;65.45;;
36415;SDS011;22447;44.530;18.620;2022-10-19T06:28:08;142.55;;;70.55;;
36415;SDS011;22447;44.530;18.620;2022-10-19T06:30:38;133.95;;;67.30;;
36415;SDS011;22447;44.530;18.620;2022-10-19T06:33:05;149.32;;;71.30;;
36415;SDS011;22447;44.530;18.620;2022-10-19T06:35:31;140.65;;;70.00;;
36415;SDS011;22447;44.530;18.620;2022-10-19T06:38:00;136.63;;;69.05;;
36415;SDS011;22447;44.530;18.620;2022-10-19T06:40:26;156.23;;;78.22;;
36415;SDS011;22447;44.530;18.620;2022-10-19T06:42:53;132.00;;;68.55;;
36415;SDS011;22447;44.530;18.620;2022-10-19T06:45:20;132.60;;;69.05;;
36415;SDS011;22447;44.530;18.620;2022-10-19T06:47:45;124.47;;;65.95;;
36415;SDS011;22447;44.530;18.620;2022-10-19T06:50:11;125.75;;;65.68;;
36415;SDS011;22447;44.530;18.620;2022-10-19T06:52:37;118.97;;;63.22;;
36415;SDS011;22447;44.530;18.620;2022-10-19T06:55:05;114.72;;;61.78;;
36415;SDS011;22447;44.530;18.620;2022-10-19T06:57:31;113.90;;;59.63;;
36415;SDS011;22447;44.530;18.620;2022-10-19T06:59:57;114.15;;;59.13;;
36415;SDS011;22447;44.530;18.620;2022-10-19T07:02:23;108.40;;;58.50;;
36415;SDS011;22447;44.530;18.620;2022-10-19T07:04:49;112.03;;;58.15;;
36415;SDS011;22447;44.530;18.620;2022-10-19T07:07:15;114.25;;;56.20;;
36415;SDS011;22447;44.530;18.620;2022-10-19T07:09:40;104.75;;;56.50;;
36415;SDS011;22447;44.530;18.620;2022-10-19T07:12:06;98.95;;;54.15;;
36415;SDS011;22447;44.530;18.620;2022-10-19T07:14:35;104.55;;;53.50;;
36415;SDS011;22447;44.530;18.620;2022-10-19T07:17:04;102.70;;;54.35;;
36415;SDS011;22447;44.530;18.620;2022-10-19T07:19:31;117.63;;;55.17;;
36415;SDS011;22447;44.530;18.620;2022-10-19T07:21:58;109.82;;;57.80;;
36415;SDS011;22447;44.530;18.620;2022-10-19T07:24:24;114.38;;;56.85;;
36415;SDS011;22447;44.530;18.620;2022-10-19T07:26:50;112.22;;;58.13;;
36415;SDS011;22447;44.530;18.620;2022-10-19T07:29:16;110.43;;;57.42;;
36415;SDS011;22447;44.530;18.620;2022-10-19T07:31:42;108.88;;;56.47;;
36415;SDS011;22447;44.530;18.620;2022-10-19T07:34:12;110.43;;;56.20;;
36415;SDS011;22447;44.530;18.620;2022-10-19T07:36:39;123.82;;;58.60;;
36415;SDS011;22447;44.530;18.620;2022-10-19T07:39:09;110.23;;;59.13;;
36415;SDS011;22447;44.530;18.620;2022-10-19T07:41:36;103.07;;;56.20;;
36415;SDS011;22447;44.530;18.620;2022-10-19T07:44:02;117.00;;;58.60;;
36415;SDS011;22447;44.530;18.620;2022-10-19T07:46:30;118.97;;;63.15;;
36415;SDS011;22447;44.530;18.620;2022-10-19T07:49:01;152.23;;;75.88;;
36415;SDS011;22447;44.530;18.620;2022-10-19T07:51:28;146.70;;;76.55;;
36415;SDS011;22447;44.530;18.620;2022-10-19T07:53:54;146.93;;;72.63;;
36415;SDS011;22447;44.530;18.620;2022-10-19T07:56:23;137.43;;;70.68;;
36415;SDS011;22447;44.530;18.620;2022-10-19T07:58:51;134.85;;;71.38;;
36415;SDS011;22447;44.530;18.620;2022-10-19T08:01:19;154.07;;;75.45;;
36415;SDS011;22447;44.530;18.620;2022-10-19T08:03:47;140.85;;;72.82;;
36415;SDS011;22447;44.530;18.620;2022-10-19T08:06:15;138.48;;;75.95;;
36415;SDS011;22447;44.530;18.620;2022-10-19T08:08:43;148.55;;;73.63;;
36415;SDS011;22447;44.530;18.620;2022-10-19T08:11:20;137.20;;;69.97;;
36415;SDS011;22447;44.530;18.620;2022-10-19T08:13:51;130.60;;;65.25;;
36415;SDS011;22447;44.530;18.620;2022-10-19T08:16:38;128.32;;;66.22;;
36415;SDS011;22447;44.530;18.620;2022-10-19T08:19:06;125.30;;;65.35;;
36415;SDS011;22447;44.530;18.620;2022-10-19T08:21:38;142.70;;;63.97;;
36415;SDS011;22447;44.530;18.620;2022-10-19T08:24:05;154.70;;;72.00;;
36415;SDS011;22447;44.530;18.620;2022-10-19T08:26:33;138.82;;;66.25;;
36415;SDS011;22447;44.530;18.620;2022-10-19T08:29:01;150.88;;;71.93;;
36415;SDS011;22447;44.530;18.620;2022-10-19T08:31:29;154.93;;;68.65;;
36415;SDS011;22447;44.530;18.620;2022-10-19T08:33:55;153.68;;;70.55;;
36415;SDS011;22447;44.530;18.620;2022-10-19T08:36:21;168.27;;;70.03;;
36415;SDS011;22447;44.530;18.620;2022-10-19T08:38:47;151.05;;;66.50;;
36415;SDS011;22447;44.530;18.620;2022-10-19T08:41:21;147.38;;;63.72;;
36415;SDS011;22447;44.530;18.620;2022-10-19T08:49:56;120.53;;;62.45;;
36415;SDS011;22447;44.530;18.620;2022-10-19T08:52:24;126.38;;;62.05;;
36415;SDS011;22447;44.530;18.620;2022-10-19T09:02:29;91.97;;;52.20;;
36415;SDS011;22447;44.530;18.620;2022-10-19T09:08:03;90.97;;;53.92;;
36415;SDS011;22447;44.530;18.620;2022-10-19T09:10:31;91.25;;;52.40;;
36415;SDS011;22447;44.530;18.620;2022-10-19T09:13:08;91.75;;;50.90;;
36415;SDS011;22447;44.530;18.620;2022-10-19T09:15:50;90.30;;;51.10;;
36415;SDS011;22447;44.530;18.620;2022-10-19T09:18:26;90.85;;;50.30;;
36415;SDS011;22447;44.530;18.620;2022-10-19T09:21:03;103.60;;;52.78;;
36415;SDS011;22447;44.530;18.620;2022-10-19T09:23:40;84.00;;;48.47;;
36415;SDS011;22447;44.530;18.620;2022-10-19T09:26:24;100.85;;;52.78;;
36415;SDS011;22447;44.530;18.620;2022-10-19T09:31:31;87.30;;;50.13;;
36415;SDS011;22447;44.530;18.620;2022-10-19T09:34:04;95.45;;;52.28;;
36415;SDS011;22447;44.530;18.620;2022-10-19T09:36:42;111.93;;;53.58;;
36415;SDS011;22447;44.530;18.620;2022-10-19T09:39:12;109.07;;;53.92;;
36415;SDS011;22447;44.530;18.620;2022-10-19T09:41:47;99.72;;;51.45;;
36415;SDS011;22447;44.530;18.620;2022-10-19T09:44:16;92.45;;;49.65;;
36415;SDS011;22447;44.530;18.620;2022-10-19T09:46:44;103.57;;;54.92;;
36415;SDS011;22447;44.530;18.620;2022-10-19T09:49:16;101.20;;;54.47;;
36415;SDS011;22447;44.530;18.620;2022-10-19T09:52:02;95.38;;;49.03;;
36415;SDS011;22447;44.530;18.620;2022-10-19T09:54:35;112.85;;;54.10;;
36415;SDS011;22447;44.530;18.620;2022-10-19T09:57:03;110.05;;;53.95;;
36415;SDS011;22447;44.530;18.620;2022-10-19T09:59:32;107.70;;;53.72;;
36415;SDS011;22447;44.530;18.620;2022-10-19T10:04:37;147.35;;;63.40;;
36415;SDS011;22447;44.530;18.620;2022-10-19T10:07:03;141.07;;;61.25;;
36415;SDS011;22447;44.530;18.620;2022-10-19T10:09:30;151.55;;;62.30;;
36415;SDS011;22447;44.530;18.620;2022-10-19T10:12:02;149.80;;;59.50;;
36415;SDS011;22447;44.530;18.620;2022-10-19T10:14:33;139.57;;;59.97;;
36415;SDS011;22447;44.530;18.620;2022-10-19T10:17:05;149.73;;;58.83;;
36415;SDS011;22447;44.530;18.620;2022-10-19T10:21:59;121.07;;;49.50;;
36415;SDS011;22447;44.530;18.620;2022-10-19T10:24:31;105.90;;;47.45;;
36415;SDS011;22447;44.530;18.620;2022-10-19T10:26:59;116.35;;;50.20;;
36415;SDS011;22447;44.530;18.620;2022-10-19T10:29:34;118.13;;;48.80;;
36415;SDS011;22447;44.530;18.620;2022-10-19T10:32:10;104.18;;;46.10;;
36415;SDS011;22447;44.530;18.620;2022-10-19T10:34:44;105.72;;;46.22;;
36415;SDS011;22447;44.530;18.620;2022-10-19T10:37:21;105.10;;;45.60;;
36415;SDS011;22447;44.530;18.620;2022-10-19T10:39:52;109.22;;;50.05;;
36415;SDS011;22447;44.530;18.620;2022-10-19T10:42:23;100.28;;;43.55;;
36415;SDS011;22447;44.530;18.620;2022-10-19T10:45:15;83.40;;;41.10;;
36415;SDS011;22447;44.530;18.620;2022-10-19T10:47:41;74.93;;;37.92;;
36415;SDS011;22447;44.530;18.620;2022-10-19T10:50:16;63.33;;;33.85;;
36415;SDS011;22447;44.530;18.620;2022-10-19T10:53:03;62.13;;;32.55;;
36415;SDS011;22447;44.530;18.620;2022-10-19T10:55:31;57.72;;;29.95;;
36415;SDS011;22447;44.530;18.620;2022-10-19T10:58:20;43.03;;;24.73;;
36415;SDS011;22447;44.530;18.620;2022-10-19T11:00:50;44.67;;;25.13;;
36415;SDS011;22447;44.530;18.620;2022-10-19T11:03:26;45.88;;;26.00;;
36415;SDS011;22447;44.530;18.620;2022-10-19T11:05:55;44.88;;;22.02;;
36415;SDS011;22447;44.530;18.620;2022-10-19T11:08:27;36.53;;;20.00;;
36415;SDS011;22447;44.530;18.620;2022-10-19T11:16:44;44.53;;;21.75;;
36415;SDS011;22447;44.530;18.620;2022-10-19T11:19:19;29.48;;;18.17;;
36415;SDS011;22447;44.530;18.620;2022-10-19T11:28:07;30.40;;;17.02;;
36415;SDS011;22447;44.530;18.620;2022-10-19T11:30:46;25.60;;;18.02;;
36415;SDS011;22447;44.530;18.620;2022-10-19T11:36:35;25.00;;;14.15;;
36415;SDS011;22447;44.530;18.620;2022-10-19T11:41:56;24.00;;;15.20;;
36415;SDS011;22447;44.530;18.620;2022-10-19T11:47:39;27.58;;;17.25;;
36415;SDS011;22447;44.530;18.620;2022-10-19T11:50:32;22.50;;;14.38;;
36415;SDS011;22447;44.530;18.620;2022-10-19T12:01:15;30.75;;;16.38;;
36415;SDS011;22447;44.530;18.620;2022-10-19T12:14:38;19.45;;;12.48;;
36415;SDS011;22447;44.530;18.620;2022-10-19T12:17:49;27.40;;;13.68;;
36415;SDS011;22447;44.530;18.620;2022-10-19T12:20:02;22.20;;;12.52;;
36415;SDS011;22447;44.530;18.620;2022-10-19T12:22:39;17.25;;;13.23;;
36415;SDS011;22447;44.530;18.620;2022-10-19T12:25:10;35.85;;;15.30;;
36415;SDS011;22447;44.530;18.620;2022-10-19T12:27:39;19.85;;;13.77;;
36415;SDS011;22447;44.530;18.620;2022-10-19T12:30:14;22.42;;;14.77;;
36415;SDS011;22447;44.530;18.620;2022-10-19T12:32:47;21.10;;;12.88;;
36415;SDS011;22447;44.530;18.620;2022-10-19T12:41:05;24.70;;;15.52;;
36415;SDS011;22447;44.530;18.620;2022-10-19T12:43:44;24.35;;;15.18;;
36415;SDS011;22447;44.530;18.620;2022-10-19T12:51:53;19.90;;;12.75;;
36415;SDS011;22447;44.530;18.620;2022-10-19T12:54:24;20.65;;;13.90;;
36415;SDS011;22447;44.530;18.620;2022-10-19T12:56:53;22.33;;;14.30;;
36415;SDS011;22447;44.530;18.620;2022-10-19T12:59:23;25.40;;;15.50;;
36415;SDS011;22447;44.530;18.620;2022-10-19T13:01:54;36.22;;;15.75;;
36415;SDS011;22447;44.530;18.620;2022-10-19T13:04:22;23.20;;;15.50;;
36415;SDS011;22447;44.530;18.620;2022-10-19T13:22:39;26.35;;;14.27;;
36415;SDS011;22447;44.530;18.620;2022-10-19T13:27:43;26.83;;;14.88;;
36415;SDS011;22447;44.530;18.620;2022-10-19T13:35:45;31.13;;;16.27;;
36415;SDS011;22447;44.530;18.620;2022-10-19T13:40:54;31.25;;;17.50;;
36415;SDS011;22447;44.530;18.620;2022-10-19T13:43:25;31.98;;;17.00;;
36415;SDS011;22447;44.530;18.620;2022-10-19T13:46:13;28.20;;;15.30;;
36415;SDS011;22447;44.530;18.620;2022-10-19T14:08:07;21.83;;;13.35;;
36415;SDS011;22447;44.530;18.620;2022-10-19T14:10:42;25.55;;;14.13;;
36415;SDS011;22447;44.530;18.620;2022-10-19T14:13:14;22.15;;;12.82;;
36415;SDS011;22447;44.530;18.620;2022-10-19T14:15:41;20.90;;;13.15;;
36415;SDS011;22447;44.530;18.620;2022-10-19T14:18:28;28.58;;;14.80;;
36415;SDS011;22447;44.530;18.620;2022-10-19T14:20:59;22.85;;;13.32;;
36415;SDS011;22447;44.530;18.620;2022-10-19T14:23:28;32.38;;;15.43;;
36415;SDS011;22447;44.530;18.620;2022-10-19T14:28:25;41.28;;;16.25;;
36415;SDS011;22447;44.530;18.620;2022-10-19T14:31:02;43.10;;;17.02;;
36415;SDS011;22447;44.530;18.620;2022-10-19T14:33:32;37.85;;;16.95;;
36415;SDS011;22447;44.530;18.620;2022-10-19T14:36:00;37.70;;;16.70;;
36415;SDS011;22447;44.530;18.620;2022-10-19T14:38:34;32.22;;;16.77;;
36415;SDS011;22447;44.530;18.620;2022-10-19T14:41:03;28.25;;;17.73;;
36415;SDS011;22447;44.530;18.620;2022-10-19T14:43:30;32.13;;;21.52;;
36415;SDS011;22447;44.530;18.620;2022-10-19T14:48:41;35.75;;;17.48;;
36415;SDS011;22447;44.530;18.620;2022-10-19T14:51:15;25.60;;;15.30;;
36415;SDS011;22447;44.530;18.620;2022-10-19T14:56:49;24.60;;;13.07;;
36415;SDS011;22447;44.530;18.620;2022-10-19T15:02:22;15.52;;;11.10;;
36415;SDS011;22447;44.530;18.620;2022-10-19T15:04:48;25.05;;;17.60;;
36415;SDS011;22447;44.530;18.620;2022-10-19T15:07:22;19.55;;;14.23;;
36415;SDS011;22447;44.530;18.620;2022-10-19T15:09:55;17.30;;;11.15;;
36415;SDS011;22447;44.530;18.620;2022-10-19T15:12:36;19.10;;;10.73;;
36415;SDS011;22447;44.530;18.620;2022-10-19T15:15:18;18.75;;;12.10;;
36415;SDS011;22447;44.530;18.620;2022-10-19T15:17:53;32.80;;;19.60;;
36415;SDS011;22447;44.530;18.620;2022-10-19T15:22:59;35.17;;;21.30;;
36415;SDS011;22447;44.530;18.620;2022-10-19T15:28:20;26.27;;;13.73;;
36415;SDS011;22447;44.530;18.620;2022-10-19T15:31:19;40.28;;;21.60;;
36415;SDS011;22447;44.530;18.620;2022-10-19T15:33:51;25.85;;;14.93;;
36415;SDS011;22447;44.530;18.620;2022-10-19T15:36:19;18.27;;;13.13;;
36415;SDS011;22447;44.530;18.620;2022-10-19T15:39:11;29.52;;;16.77;;
36415;SDS011;22447;44.530;18.620;2022-10-19T15:41:33;40.38;;;21.35;;
36415;SDS011;22447;44.530;18.620;2022-10-19T15:44:28;49.30;;;26.27;;
36415;SDS011;22447;44.530;18.620;2022-10-19T15:52:18;63.50;;;29.42;;
36415;SDS011;22447;44.530;18.620;2022-10-19T15:54:49;39.88;;;20.48;;
36415;SDS011;22447;44.530;18.620;2022-10-19T15:59:56;38.85;;;19.40;;
36415;SDS011;22447;44.530;18.620;2022-10-19T16:02:25;47.08;;;25.10;;
36415;SDS011;22447;44.530;18.620;2022-10-19T16:04:52;100.20;;;45.25;;
36415;SDS011;22447;44.530;18.620;2022-10-19T16:07:23;94.68;;;42.63;;
36415;SDS011;22447;44.530;18.620;2022-10-19T16:09:52;124.15;;;52.88;;
36415;SDS011;22447;44.530;18.620;2022-10-19T16:12:18;121.72;;;55.13;;
36415;SDS011;22447;44.530;18.620;2022-10-19T16:14:45;117.20;;;53.42;;
36415;SDS011;22447;44.530;18.620;2022-10-19T16:17:11;111.03;;;47.20;;
36415;SDS011;22447;44.530;18.620;2022-10-19T16:19:37;152.60;;;67.90;;
36415;SDS011;22447;44.530;18.620;2022-10-19T16:22:03;176.05;;;73.57;;
36415;SDS011;22447;44.530;18.620;2022-10-19T16:24:30;182.00;;;77.53;;
36415;SDS011;22447;44.530;18.620;2022-10-19T16:26:55;159.52;;;66.93;;
36415;SDS011;22447;44.530;18.620;2022-10-19T16:29:21;153.95;;;64.50;;
36415;SDS011;22447;44.530;18.620;2022-10-19T16:31:47;82.82;;;38.00;;
36415;SDS011;22447;44.530;18.620;2022-10-19T16:34:13;95.40;;;42.72;;
36415;SDS011;22447;44.530;18.620;2022-10-19T16:36:39;74.57;;;33.53;;
36415;SDS011;22447;44.530;18.620;2022-10-19T16:39:05;58.03;;;27.60;;
36415;SDS011;22447;44.530;18.620;2022-10-19T16:41:31;43.45;;;21.40;;
36415;SDS011;22447;44.530;18.620;2022-10-19T16:43:57;27.05;;;16.48;;
36415;SDS011;22447;44.530;18.620;2022-10-19T16:46:23;35.20;;;16.40;;
36415;SDS011;22447;44.530;18.620;2022-10-19T16:48:50;33.20;;;17.45;;
36415;SDS011;22447;44.530;18.620;2022-10-19T16:53:49;27.35;;;15.57;;
36415;SDS011;22447;44.530;18.620;2022-10-19T16:56:16;29.52;;;15.45;;
36415;SDS011;22447;44.530;18.620;2022-10-19T16:58:43;32.85;;;14.90;;
36415;SDS011;22447;44.530;18.620;2022-10-19T17:01:13;59.50;;;28.15;;
36415;SDS011;22447;44.530;18.620;2022-10-19T17:03:40;57.33;;;33.35;;
36415;SDS011;22447;44.530;18.620;2022-10-19T17:06:07;63.45;;;29.83;;
36415;SDS011;22447;44.530;18.620;2022-10-19T17:08:34;61.47;;;29.95;;
36415;SDS011;22447;44.530;18.620;2022-10-19T17:13:41;79.47;;;41.40;;
36415;SDS011;22447;44.530;18.620;2022-10-19T17:16:09;83.28;;;43.30;;
36415;SDS011;22447;44.530;18.620;2022-10-19T17:18:36;70.45;;;38.55;;